sensor_id;sensor_type;location;lat;lon;timestamp;P1;durP1;ratioP1;P2;durP2;ratioP2
9834;SDS011;69850;50.942;13.748;2023-07-24T00:00:11;4.15;;;3.45;;
9834;SDS011;69850;50.942;13.748;2023-07-24T00:03:32;6.45;;;3.40;;
9834;SDS011;69850;50.942;13.748;2023-07-24T00:06:52;3.85;;;3.22;;
9834;SDS011;69850;50.942;13.748;2023-07-24T00:10:14;7.07;;;3.53;;
9834;SDS011;69850;50.942;13.748;2023-07-24T00:13:35;5.22;;;3.20;;
9834;SDS011;69850;50.942;13.748;2023-07-24T00:16:56;5.35;;;3.42;;
9834;SDS011;69850;50.942;13.748;2023-07-24T00:20:16;5.30;;;3.17;;
9834;SDS011;69850;50.942;13.748;2023-07-24T00:23:37;7.03;;;3.63;;
9834;SDS011;69850;50.942;13.748;2023-07-24T00:26:58;6.80;;;3.35;;
9834;SDS011;69850;50.942;13.748;2023-07-24T00:30:18;4.20;;;3.42;;
9834;SDS011;69850;50.942;13.748;2023-07-24T00:33:39;7.20;;;4.00;;
9834;SDS011;69850;50.942;13.748;2023-07-24T00:37:00;6.95;;;3.60;;
9834;SDS011;69850;50.942;13.748;2023-07-24T00:40:20;4.25;;;3.22;;
9834;SDS011;69850;50.942;13.748;2023-07-24T00:43:41;7.63;;;3.60;;
9834;SDS011;69850;50.942;13.748;2023-07-24T00:47:02;4.43;;;3.50;;
9834;SDS011;69850;50.942;13.748;2023-07-24T00:50:23;4.78;;;3.63;;
9834;SDS011;69850;50.942;13.748;2023-07-24T00:53:43;6.20;;;3.97;;
9834;SDS011;69850;50.942;13.748;2023-07-24T00:57:04;5.57;;;3.90;;
9834;SDS011;69850;50.942;13.748;2023-07-24T01:00:26;4.60;;;3.47;;
9834;SDS011;69850;50.942;13.748;2023-07-24T01:03:47;4.93;;;3.60;;
9834;SDS011;69850;50.942;13.748;2023-07-24T01:07:08;5.03;;;3.60;;
9834;SDS011;69850;50.942;13.748;2023-07-24T01:10:29;6.35;;;3.70;;
9834;SDS011;69850;50.942;13.748;2023-07-24T01:13:56;4.97;;;3.30;;
9834;SDS011;69850;50.942;13.748;2023-07-24T01:17:20;5.75;;;3.78;;
9834;SDS011;69850;50.942;13.748;2023-07-24T01:20:47;5.57;;;3.78;;
9834;SDS011;69850;50.942;13.748;2023-07-24T01:27:42;6.03;;;3.40;;
9834;SDS011;69850;50.942;13.748;2023-07-24T01:31:04;4.97;;;3.30;;
9834;SDS011;69850;50.942;13.748;2023-07-24T01:34:24;5.20;;;3.75;;
9834;SDS011;69850;50.942;13.748;2023-07-24T01:37:45;6.60;;;3.75;;
9834;SDS011;69850;50.942;13.748;2023-07-24T01:41:06;3.80;;;3.28;;
9834;SDS011;69850;50.942;13.748;2023-07-24T01:44:28;4.40;;;3.35;;
9834;SDS011;69850;50.942;13.748;2023-07-24T01:47:48;4.10;;;3.50;;
9834;SDS011;69850;50.942;13.748;2023-07-24T01:51:09;4.82;;;3.78;;
9834;SDS011;69850;50.942;13.748;2023-07-24T01:54:30;4.60;;;3.65;;
9834;SDS011;69850;50.942;13.748;2023-07-24T01:57:50;5.95;;;3.67;;
9834;SDS011;69850;50.942;13.748;2023-07-24T02:01:11;5.15;;;3.83;;
9834;SDS011;69850;50.942;13.748;2023-07-24T02:04:32;4.25;;;3.17;;
9834;SDS011;69850;50.942;13.748;2023-07-24T02:07:52;5.20;;;3.75;;
9834;SDS011;69850;50.942;13.748;2023-07-24T02:11:15;6.10;;;4.13;;
9834;SDS011;69850;50.942;13.748;2023-07-24T02:14:36;5.15;;;3.65;;
9834;SDS011;69850;50.942;13.748;2023-07-24T02:17:56;5.05;;;3.63;;
9834;SDS011;69850;50.942;13.748;2023-07-24T02:21:18;5.10;;;3.70;;
9834;SDS011;69850;50.942;13.748;2023-07-24T02:24:40;4.22;;;3.65;;
9834;SDS011;69850;50.942;13.748;2023-07-24T02:28:01;4.28;;;3.67;;
9834;SDS011;69850;50.942;13.748;2023-07-24T02:31:21;6.72;;;4.00;;
9834;SDS011;69850;50.942;13.748;2023-07-24T02:34:43;4.68;;;3.33;;
9834;SDS011;69850;50.942;13.748;2023-07-24T02:38:03;5.93;;;3.50;;
9834;SDS011;69850;50.942;13.748;2023-07-24T02:41:25;4.63;;;3.72;;
9834;SDS011;69850;50.942;13.748;2023-07-24T02:44:46;4.65;;;3.45;;
9834;SDS011;69850;50.942;13.748;2023-07-24T02:48:07;6.28;;;3.60;;
9834;SDS011;69850;50.942;13.748;2023-07-24T02:51:27;7.57;;;3.85;;
9834;SDS011;69850;50.942;13.748;2023-07-24T02:54:48;5.55;;;3.78;;
9834;SDS011;69850;50.942;13.748;2023-07-24T02:58:10;5.13;;;3.83;;
9834;SDS011;69850;50.942;13.748;2023-07-24T03:01:31;5.15;;;3.75;;
9834;SDS011;69850;50.942;13.748;2023-07-24T03:04:52;4.63;;;3.65;;
9834;SDS011;69850;50.942;13.748;2023-07-24T03:08:13;4.60;;;3.47;;
9834;SDS011;69850;50.942;13.748;2023-07-24T03:11:34;5.63;;;3.70;;
9834;SDS011;69850;50.942;13.748;2023-07-24T03:14:56;7.47;;;4.20;;
9834;SDS011;69850;50.942;13.748;2023-07-24T03:18:17;7.00;;;3.80;;
9834;SDS011;69850;50.942;13.748;2023-07-24T03:21:38;5.28;;;3.90;;
9834;SDS011;69850;50.942;13.748;2023-07-24T03:24:59;4.85;;;3.58;;
9834;SDS011;69850;50.942;13.748;2023-07-24T03:28:20;5.10;;;3.65;;
9834;SDS011;69850;50.942;13.748;2023-07-24T03:31:40;4.90;;;3.42;;
9834;SDS011;69850;50.942;13.748;2023-07-24T03:35:01;5.82;;;3.30;;
9834;SDS011;69850;50.942;13.748;2023-07-24T03:38:22;5.28;;;3.55;;
9834;SDS011;69850;50.942;13.748;2023-07-24T03:41:45;6.25;;;3.65;;
9834;SDS011;69850;50.942;13.748;2023-07-24T03:45:06;5.80;;;3.63;;
9834;SDS011;69850;50.942;13.748;2023-07-24T03:48:27;4.20;;;3.35;;
9834;SDS011;69850;50.942;13.748;2023-07-24T03:51:48;7.18;;;4.95;;
9834;SDS011;69850;50.942;13.748;2023-07-24T03:55:09;5.10;;;3.63;;
9834;SDS011;69850;50.942;13.748;2023-07-24T03:58:30;7.63;;;3.75;;
9834;SDS011;69850;50.942;13.748;2023-07-24T04:01:51;4.90;;;3.70;;
9834;SDS011;69850;50.942;13.748;2023-07-24T04:05:12;5.35;;;3.92;;
9834;SDS011;69850;50.942;13.748;2023-07-24T04:08:32;6.93;;;3.85;;
9834;SDS011;69850;50.942;13.748;2023-07-24T04:11:53;5.68;;;3.70;;
9834;SDS011;69850;50.942;13.748;2023-07-24T04:15:14;6.20;;;3.60;;
9834;SDS011;69850;50.942;13.748;2023-07-24T04:18:35;5.78;;;3.70;;
9834;SDS011;69850;50.942;13.748;2023-07-24T04:21:55;6.47;;;3.72;;
9834;SDS011;69850;50.942;13.748;2023-07-24T04:25:16;6.90;;;4.60;;
9834;SDS011;69850;50.942;13.748;2023-07-24T04:28:37;4.85;;;3.75;;
9834;SDS011;69850;50.942;13.748;2023-07-24T04:31:57;5.32;;;3.78;;
9834;SDS011;69850;50.942;13.748;2023-07-24T04:35:18;5.68;;;3.50;;
9834;SDS011;69850;50.942;13.748;2023-07-24T04:38:39;5.05;;;3.40;;
9834;SDS011;69850;50.942;13.748;2023-07-24T04:41:59;4.75;;;3.50;;
9834;SDS011;69850;50.942;13.748;2023-07-24T04:45:20;4.93;;;3.60;;
9834;SDS011;69850;50.942;13.748;2023-07-24T04:48:41;4.88;;;3.38;;
9834;SDS011;69850;50.942;13.748;2023-07-24T04:52:01;6.63;;;3.35;;
9834;SDS011;69850;50.942;13.748;2023-07-24T04:55:22;5.97;;;3.45;;
9834;SDS011;69850;50.942;13.748;2023-07-24T04:58:43;5.40;;;3.13;;
9834;SDS011;69850;50.942;13.748;2023-07-24T05:02:04;5.95;;;3.53;;
9834;SDS011;69850;50.942;13.748;2023-07-24T05:05:24;3.95;;;3.28;;
9834;SDS011;69850;50.942;13.748;2023-07-24T05:08:45;4.65;;;4.00;;
9834;SDS011;69850;50.942;13.748;2023-07-24T05:12:06;5.80;;;3.60;;
9834;SDS011;69850;50.942;13.748;2023-07-24T05:15:27;5.75;;;3.72;;
9834;SDS011;69850;50.942;13.748;2023-07-24T05:18:48;9.30;;;4.22;;
9834;SDS011;69850;50.942;13.748;2023-07-24T05:22:09;4.80;;;3.58;;
9834;SDS011;69850;50.942;13.748;2023-07-24T05:25:30;4.65;;;3.40;;
9834;SDS011;69850;50.942;13.748;2023-07-24T05:28:51;6.03;;;4.10;;
9834;SDS011;69850;50.942;13.748;2023-07-24T05:32:13;5.82;;;3.90;;
9834;SDS011;69850;50.942;13.748;2023-07-24T05:35:33;4.57;;;3.58;;
9834;SDS011;69850;50.942;13.748;2023-07-24T05:38:57;6.32;;;3.92;;
9834;SDS011;69850;50.942;13.748;2023-07-24T05:42:18;5.20;;;4.53;;
9834;SDS011;69850;50.942;13.748;2023-07-24T05:45:38;5.45;;;3.55;;
9834;SDS011;69850;50.942;13.748;2023-07-24T05:48:59;6.47;;;4.50;;
9834;SDS011;69850;50.942;13.748;2023-07-24T05:52:23;6.95;;;6.05;;
9834;SDS011;69850;50.942;13.748;2023-07-24T05:55:43;9.70;;;6.70;;
9834;SDS011;69850;50.942;13.748;2023-07-24T05:59:04;5.95;;;4.57;;
9834;SDS011;69850;50.942;13.748;2023-07-24T06:02:25;5.03;;;4.10;;
9834;SDS011;69850;50.942;13.748;2023-07-24T06:05:45;6.63;;;4.32;;
9834;SDS011;69850;50.942;13.748;2023-07-24T06:09:06;5.70;;;4.10;;
9834;SDS011;69850;50.942;13.748;2023-07-24T06:12:27;5.40;;;4.25;;
9834;SDS011;69850;50.942;13.748;2023-07-24T06:15:48;6.32;;;4.15;;
9834;SDS011;69850;50.942;13.748;2023-07-24T06:19:10;6.18;;;4.35;;
9834;SDS011;69850;50.942;13.748;2023-07-24T06:22:30;6.32;;;4.32;;
9834;SDS011;69850;50.942;13.748;2023-07-24T06:25:51;5.57;;;3.97;;
9834;SDS011;69850;50.942;13.748;2023-07-24T06:29:13;4.90;;;4.07;;
9834;SDS011;69850;50.942;13.748;2023-07-24T06:32:34;6.72;;;4.10;;
9834;SDS011;69850;50.942;13.748;2023-07-24T06:35:55;7.07;;;4.35;;
9834;SDS011;69850;50.942;13.748;2023-07-24T06:39:16;5.10;;;4.13;;
9834;SDS011;69850;50.942;13.748;2023-07-24T06:42:36;6.22;;;4.18;;
9834;SDS011;69850;50.942;13.748;2023-07-24T06:45:57;6.05;;;4.10;;
9834;SDS011;69850;50.942;13.748;2023-07-24T06:49:18;6.05;;;4.40;;
9834;SDS011;69850;50.942;13.748;2023-07-24T06:52:38;5.93;;;4.53;;
9834;SDS011;69850;50.942;13.748;2023-07-24T06:55:59;4.82;;;4.07;;
9834;SDS011;69850;50.942;13.748;2023-07-24T06:59:20;7.00;;;4.47;;
9834;SDS011;69850;50.942;13.748;2023-07-24T07:02:40;5.40;;;4.32;;
9834;SDS011;69850;50.942;13.748;2023-07-24T07:06:01;4.43;;;3.85;;
9834;SDS011;69850;50.942;13.748;2023-07-24T07:09:23;4.97;;;3.90;;
9834;SDS011;69850;50.942;13.748;2023-07-24T07:12:43;4.85;;;3.60;;
9834;SDS011;69850;50.942;13.748;2023-07-24T07:16:04;4.65;;;3.88;;
9834;SDS011;69850;50.942;13.748;2023-07-24T07:19:25;11.52;;;4.20;;
9834;SDS011;69850;50.942;13.748;2023-07-24T07:22:45;4.03;;;3.47;;
9834;SDS011;69850;50.942;13.748;2023-07-24T07:26:06;4.32;;;3.85;;
9834;SDS011;69850;50.942;13.748;2023-07-24T07:29:26;6.00;;;3.92;;
9834;SDS011;69850;50.942;13.748;2023-07-24T07:32:47;4.97;;;3.95;;
9834;SDS011;69850;50.942;13.748;2023-07-24T07:36:09;6.32;;;4.20;;
9834;SDS011;69850;50.942;13.748;2023-07-24T07:39:29;5.35;;;3.88;;
9834;SDS011;69850;50.942;13.748;2023-07-24T07:42:50;5.22;;;4.15;;
9834;SDS011;69850;50.942;13.748;2023-07-24T07:46:11;7.90;;;4.18;;
9834;SDS011;69850;50.942;13.748;2023-07-24T07:49:31;7.60;;;4.03;;
9834;SDS011;69850;50.942;13.748;2023-07-24T07:52:52;7.25;;;4.35;;
9834;SDS011;69850;50.942;13.748;2023-07-24T07:56:13;7.68;;;4.47;;
9834;SDS011;69850;50.942;13.748;2023-07-24T07:59:34;8.27;;;4.20;;
9834;SDS011;69850;50.942;13.748;2023-07-24T08:02:55;5.05;;;4.10;;
9834;SDS011;69850;50.942;13.748;2023-07-24T08:06:15;5.25;;;4.15;;
9834;SDS011;69850;50.942;13.748;2023-07-24T08:09:36;5.70;;;4.13;;
9834;SDS011;69850;50.942;13.748;2023-07-24T08:12:58;5.95;;;4.72;;
9834;SDS011;69850;50.942;13.748;2023-07-24T08:16:19;6.43;;;4.32;;
9834;SDS011;69850;50.942;13.748;2023-07-24T08:19:39;6.22;;;4.22;;
9834;SDS011;69850;50.942;13.748;2023-07-24T08:23:00;5.75;;;4.15;;
9834;SDS011;69850;50.942;13.748;2023-07-24T08:26:21;7.63;;;4.70;;
9834;SDS011;69850;50.942;13.748;2023-07-24T08:29:41;7.13;;;5.65;;
9834;SDS011;69850;50.942;13.748;2023-07-24T08:33:02;7.28;;;4.63;;
9834;SDS011;69850;50.942;13.748;2023-07-24T08:36:23;6.75;;;5.40;;
9834;SDS011;69850;50.942;13.748;2023-07-24T08:39:44;5.97;;;4.78;;
9834;SDS011;69850;50.942;13.748;2023-07-24T08:43:04;6.50;;;5.05;;
9834;SDS011;69850;50.942;13.748;2023-07-24T08:46:25;11.10;;;5.20;;
9834;SDS011;69850;50.942;13.748;2023-07-24T08:49:50;6.40;;;4.97;;
9834;SDS011;69850;50.942;13.748;2023-07-24T08:53:12;7.88;;;5.30;;
9834;SDS011;69850;50.942;13.748;2023-07-24T08:56:33;6.28;;;4.90;;
9834;SDS011;69850;50.942;13.748;2023-07-24T08:59:54;7.28;;;5.30;;
9834;SDS011;69850;50.942;13.748;2023-07-24T09:03:14;8.95;;;5.03;;
9834;SDS011;69850;50.942;13.748;2023-07-24T09:06:35;8.95;;;5.40;;
9834;SDS011;69850;50.942;13.748;2023-07-24T09:09:57;8.68;;;6.15;;
9834;SDS011;69850;50.942;13.748;2023-07-24T09:13:17;7.05;;;5.68;;
9834;SDS011;69850;50.942;13.748;2023-07-24T09:16:38;10.15;;;6.75;;
9834;SDS011;69850;50.942;13.748;2023-07-24T09:19:59;10.80;;;7.25;;
9834;SDS011;69850;50.942;13.748;2023-07-24T09:23:25;11.57;;;7.13;;
9834;SDS011;69850;50.942;13.748;2023-07-24T09:26:48;12.57;;;6.97;;
9834;SDS011;69850;50.942;13.748;2023-07-24T09:30:15;8.48;;;6.85;;
9834;SDS011;69850;50.942;13.748;2023-07-24T09:33:40;7.90;;;6.38;;
9834;SDS011;69850;50.942;13.748;2023-07-24T09:37:01;9.57;;;6.72;;
9834;SDS011;69850;50.942;13.748;2023-07-24T09:40:21;6.97;;;5.38;;
9834;SDS011;69850;50.942;13.748;2023-07-24T09:43:42;8.55;;;5.70;;
9834;SDS011;69850;50.942;13.748;2023-07-24T09:47:03;6.20;;;5.13;;
9834;SDS011;69850;50.942;13.748;2023-07-24T09:50:24;6.90;;;5.72;;
9834;SDS011;69850;50.942;13.748;2023-07-24T09:53:52;7.25;;;5.65;;
9834;SDS011;69850;50.942;13.748;2023-07-24T09:57:16;7.38;;;5.65;;
9834;SDS011;69850;50.942;13.748;2023-07-24T10:00:38;7.78;;;5.20;;
9834;SDS011;69850;50.942;13.748;2023-07-24T10:03:59;8.05;;;6.00;;
9834;SDS011;69850;50.942;13.748;2023-07-24T10:07:22;9.30;;;6.47;;
9834;SDS011;69850;50.942;13.748;2023-07-24T10:10:44;9.68;;;6.50;;
9834;SDS011;69850;50.942;13.748;2023-07-24T10:14:05;8.25;;;6.15;;
9834;SDS011;69850;50.942;13.748;2023-07-24T10:17:35;8.63;;;6.55;;
9834;SDS011;69850;50.942;13.748;2023-07-24T10:21:01;9.10;;;6.18;;
9834;SDS011;69850;50.942;13.748;2023-07-24T10:24:29;8.90;;;6.50;;
9834;SDS011;69850;50.942;13.748;2023-07-24T10:27:53;8.77;;;5.93;;
9834;SDS011;69850;50.942;13.748;2023-07-24T10:31:21;9.88;;;6.55;;
9834;SDS011;69850;50.942;13.748;2023-07-24T10:34:43;10.00;;;7.22;;
9834;SDS011;69850;50.942;13.748;2023-07-24T10:38:04;8.80;;;6.60;;
9834;SDS011;69850;50.942;13.748;2023-07-24T10:41:34;13.30;;;8.02;;
9834;SDS011;69850;50.942;13.748;2023-07-24T10:45:05;9.90;;;7.40;;
9834;SDS011;69850;50.942;13.748;2023-07-24T10:48:26;10.50;;;7.00;;
9834;SDS011;69850;50.942;13.748;2023-07-24T10:51:47;9.95;;;7.13;;
9834;SDS011;69850;50.942;13.748;2023-07-24T10:55:08;10.10;;;6.82;;
9834;SDS011;69850;50.942;13.748;2023-07-24T10:58:28;8.48;;;7.22;;
9834;SDS011;69850;50.942;13.748;2023-07-24T11:01:50;10.82;;;7.40;;
9834;SDS011;69850;50.942;13.748;2023-07-24T11:05:11;10.57;;;7.63;;
9834;SDS011;69850;50.942;13.748;2023-07-24T11:08:32;8.52;;;6.97;;
9834;SDS011;69850;50.942;13.748;2023-07-24T11:11:56;10.85;;;7.00;;
9834;SDS011;69850;50.942;13.748;2023-07-24T11:15:23;8.18;;;6.95;;
9834;SDS011;69850;50.942;13.748;2023-07-24T11:18:49;10.70;;;6.82;;
9834;SDS011;69850;50.942;13.748;2023-07-24T11:22:12;8.43;;;6.65;;
9834;SDS011;69850;50.942;13.748;2023-07-24T11:25:33;8.75;;;6.80;;
9834;SDS011;69850;50.942;13.748;2023-07-24T11:28:54;7.88;;;6.47;;
9834;SDS011;69850;50.942;13.748;2023-07-24T11:32:19;7.50;;;5.97;;
9834;SDS011;69850;50.942;13.748;2023-07-24T11:35:40;9.43;;;7.20;;
9834;SDS011;69850;50.942;13.748;2023-07-24T11:39:01;10.23;;;6.80;;
9834;SDS011;69850;50.942;13.748;2023-07-24T11:42:24;9.30;;;7.10;;
9834;SDS011;69850;50.942;13.748;2023-07-24T11:45:46;8.93;;;7.63;;
9834;SDS011;69850;50.942;13.748;2023-07-24T11:49:14;9.00;;;7.00;;
9834;SDS011;69850;50.942;13.748;2023-07-24T11:52:45;8.75;;;7.20;;
9834;SDS011;69850;50.942;13.748;2023-07-24T11:56:13;11.35;;;7.78;;
9834;SDS011;69850;50.942;13.748;2023-07-24T11:59:37;12.15;;;7.90;;
9834;SDS011;69850;50.942;13.748;2023-07-24T12:03:00;10.27;;;7.70;;
9834;SDS011;69850;50.942;13.748;2023-07-24T12:06:21;11.38;;;8.65;;
9834;SDS011;69850;50.942;13.748;2023-07-24T12:09:49;11.25;;;8.32;;
9834;SDS011;69850;50.942;13.748;2023-07-24T12:13:11;12.02;;;8.30;;
9834;SDS011;69850;50.942;13.748;2023-07-24T12:16:33;11.32;;;8.35;;
9834;SDS011;69850;50.942;13.748;2023-07-24T12:19:54;12.65;;;8.55;;
9834;SDS011;69850;50.942;13.748;2023-07-24T12:23:15;11.13;;;7.68;;
9834;SDS011;69850;50.942;13.748;2023-07-24T12:26:37;10.68;;;8.13;;
9834;SDS011;69850;50.942;13.748;2023-07-24T12:29:57;12.50;;;8.68;;
9834;SDS011;69850;50.942;13.748;2023-07-24T12:33:19;9.85;;;7.72;;
9834;SDS011;69850;50.942;13.748;2023-07-24T12:36:43;11.40;;;8.32;;
9834;SDS011;69850;50.942;13.748;2023-07-24T12:40:04;13.52;;;8.43;;
9834;SDS011;69850;50.942;13.748;2023-07-24T12:43:25;11.55;;;8.65;;
9834;SDS011;69850;50.942;13.748;2023-07-24T12:46:46;10.75;;;8.10;;
9834;SDS011;69850;50.942;13.748;2023-07-24T12:50:07;12.82;;;8.70;;
9834;SDS011;69850;50.942;13.748;2023-07-24T12:53:28;12.80;;;8.45;;
9834;SDS011;69850;50.942;13.748;2023-07-24T12:56:49;15.48;;;8.38;;
9834;SDS011;69850;50.942;13.748;2023-07-24T13:00:10;16.75;;;8.82;;
9834;SDS011;69850;50.942;13.748;2023-07-24T13:03:31;15.23;;;9.32;;
9834;SDS011;69850;50.942;13.748;2023-07-24T13:06:52;12.82;;;8.63;;
9834;SDS011;69850;50.942;13.748;2023-07-24T13:10:13;18.65;;;9.82;;
9834;SDS011;69850;50.942;13.748;2023-07-24T13:13:34;15.60;;;8.75;;
9834;SDS011;69850;50.942;13.748;2023-07-24T13:16:56;13.63;;;8.50;;
9834;SDS011;69850;50.942;13.748;2023-07-24T13:20:18;13.85;;;8.23;;
9834;SDS011;69850;50.942;13.748;2023-07-24T13:23:38;11.65;;;7.60;;
9834;SDS011;69850;50.942;13.748;2023-07-24T13:26:59;11.02;;;7.70;;
9834;SDS011;69850;50.942;13.748;2023-07-24T13:30:21;10.02;;;6.82;;
9834;SDS011;69850;50.942;13.748;2023-07-24T13:33:41;9.02;;;6.85;;
9834;SDS011;69850;50.942;13.748;2023-07-24T13:37:02;10.20;;;7.10;;
9834;SDS011;69850;50.942;13.748;2023-07-24T13:40:23;8.57;;;5.68;;
9834;SDS011;69850;50.942;13.748;2023-07-24T13:43:43;10.20;;;5.90;;
9834;SDS011;69850;50.942;13.748;2023-07-24T13:47:04;7.78;;;5.35;;
9834;SDS011;69850;50.942;13.748;2023-07-24T13:50:25;4.88;;;4.00;;
9834;SDS011;69850;50.942;13.748;2023-07-24T13:53:45;5.40;;;3.30;;
9834;SDS011;69850;50.942;13.748;2023-07-24T13:57:08;3.47;;;3.00;;
9834;SDS011;69850;50.942;13.748;2023-07-24T14:00:29;2.70;;;2.38;;
9834;SDS011;69850;50.942;13.748;2023-07-24T14:03:50;2.95;;;2.60;;
9834;SDS011;69850;50.942;13.748;2023-07-24T14:07:10;4.20;;;3.05;;
9834;SDS011;69850;50.942;13.748;2023-07-24T14:10:33;4.50;;;3.53;;
9834;SDS011;69850;50.942;13.748;2023-07-24T14:13:53;4.82;;;3.78;;
9834;SDS011;69850;50.942;13.748;2023-07-24T14:17:14;4.93;;;4.32;;
9834;SDS011;69850;50.942;13.748;2023-07-24T14:25:24;8.32;;;5.55;;
9834;SDS011;69850;50.942;13.748;2023-07-24T14:28:45;6.60;;;5.22;;
9834;SDS011;69850;50.942;13.748;2023-07-24T14:32:06;8.73;;;5.50;;
9834;SDS011;69850;50.942;13.748;2023-07-24T14:35:27;7.35;;;5.68;;
9834;SDS011;69850;50.942;13.748;2023-07-24T14:38:48;8.07;;;5.55;;
9834;SDS011;69850;50.942;13.748;2023-07-24T14:42:10;7.40;;;5.72;;
9834;SDS011;69850;50.942;13.748;2023-07-24T14:45:33;8.52;;;5.53;;
9834;SDS011;69850;50.942;13.748;2023-07-24T14:48:54;7.15;;;5.78;;
9834;SDS011;69850;50.942;13.748;2023-07-24T14:52:15;9.27;;;5.60;;
9834;SDS011;69850;50.942;13.748;2023-07-24T14:55:35;10.90;;;6.80;;
9834;SDS011;69850;50.942;13.748;2023-07-24T14:58:56;9.45;;;6.43;;
9834;SDS011;69850;50.942;13.748;2023-07-24T15:02:17;8.27;;;6.03;;
9834;SDS011;69850;50.942;13.748;2023-07-24T15:05:37;8.10;;;5.97;;
9834;SDS011;69850;50.942;13.748;2023-07-24T15:08:58;9.90;;;6.40;;
9834;SDS011;69850;50.942;13.748;2023-07-24T15:12:19;9.07;;;6.50;;
9834;SDS011;69850;50.942;13.748;2023-07-24T15:15:41;9.63;;;6.85;;
9834;SDS011;69850;50.942;13.748;2023-07-24T15:19:02;11.02;;;6.65;;
9834;SDS011;69850;50.942;13.748;2023-07-24T15:22:22;8.98;;;7.03;;
9834;SDS011;69850;50.942;13.748;2023-07-24T15:25:43;9.27;;;7.25;;
9834;SDS011;69850;50.942;13.748;2023-07-24T15:29:04;12.65;;;8.57;;
9834;SDS011;69850;50.942;13.748;2023-07-24T15:32:24;13.35;;;9.93;;
9834;SDS011;69850;50.942;13.748;2023-07-24T15:35:45;11.23;;;7.60;;
9834;SDS011;69850;50.942;13.748;2023-07-24T15:39:06;10.73;;;7.57;;
9834;SDS011;69850;50.942;13.748;2023-07-24T15:42:27;12.10;;;7.93;;
9834;SDS011;69850;50.942;13.748;2023-07-24T15:45:47;9.18;;;7.30;;
9834;SDS011;69850;50.942;13.748;2023-07-24T15:49:08;9.07;;;7.28;;
9834;SDS011;69850;50.942;13.748;2023-07-24T15:52:29;9.65;;;7.95;;
9834;SDS011;69850;50.942;13.748;2023-07-24T15:55:49;10.20;;;8.10;;
9834;SDS011;69850;50.942;13.748;2023-07-24T15:59:10;10.05;;;7.60;;
9834;SDS011;69850;50.942;13.748;2023-07-24T16:02:31;12.40;;;7.95;;
9834;SDS011;69850;50.942;13.748;2023-07-24T16:05:51;11.57;;;8.10;;
9834;SDS011;69850;50.942;13.748;2023-07-24T16:09:12;10.38;;;7.90;;
9834;SDS011;69850;50.942;13.748;2023-07-24T16:12:33;11.55;;;8.60;;
9834;SDS011;69850;50.942;13.748;2023-07-24T16:15:53;12.60;;;8.15;;
9834;SDS011;69850;50.942;13.748;2023-07-24T16:19:15;9.80;;;7.90;;
9834;SDS011;69850;50.942;13.748;2023-07-24T16:22:35;10.63;;;8.15;;
9834;SDS011;69850;50.942;13.748;2023-07-24T16:25:57;12.73;;;9.10;;
9834;SDS011;69850;50.942;13.748;2023-07-24T16:29:18;10.93;;;8.63;;
9834;SDS011;69850;50.942;13.748;2023-07-24T16:32:40;12.32;;;8.57;;
9834;SDS011;69850;50.942;13.748;2023-07-24T16:36:04;11.75;;;8.85;;
9834;SDS011;69850;50.942;13.748;2023-07-24T16:39:25;12.25;;;9.00;;
9834;SDS011;69850;50.942;13.748;2023-07-24T16:42:46;11.65;;;8.65;;
9834;SDS011;69850;50.942;13.748;2023-07-24T16:46:07;11.48;;;8.50;;
9834;SDS011;69850;50.942;13.748;2023-07-24T16:49:27;11.68;;;8.45;;
9834;SDS011;69850;50.942;13.748;2023-07-24T16:52:48;11.25;;;8.20;;
9834;SDS011;69850;50.942;13.748;2023-07-24T16:56:09;13.27;;;8.60;;
9834;SDS011;69850;50.942;13.748;2023-07-24T16:59:29;10.95;;;8.30;;
9834;SDS011;69850;50.942;13.748;2023-07-24T17:02:51;12.07;;;8.85;;
9834;SDS011;69850;50.942;13.748;2023-07-24T17:06:12;12.00;;;9.13;;
9834;SDS011;69850;50.942;13.748;2023-07-24T17:09:32;14.07;;;9.13;;
9834;SDS011;69850;50.942;13.748;2023-07-24T17:12:53;11.50;;;8.98;;
9834;SDS011;69850;50.942;13.748;2023-07-24T17:16:15;11.18;;;8.52;;
9834;SDS011;69850;50.942;13.748;2023-07-24T17:19:35;12.20;;;8.50;;
9834;SDS011;69850;50.942;13.748;2023-07-24T17:22:56;10.60;;;8.05;;
9834;SDS011;69850;50.942;13.748;2023-07-24T17:26:17;12.73;;;7.75;;
9834;SDS011;69850;50.942;13.748;2023-07-24T17:29:38;14.00;;;8.63;;
9834;SDS011;69850;50.942;13.748;2023-07-24T17:32:58;11.55;;;8.02;;
9834;SDS011;69850;50.942;13.748;2023-07-24T17:36:19;10.95;;;8.50;;
9834;SDS011;69850;50.942;13.748;2023-07-24T17:39:40;10.05;;;8.07;;
9834;SDS011;69850;50.942;13.748;2023-07-24T17:43:01;12.25;;;8.75;;
9834;SDS011;69850;50.942;13.748;2023-07-24T17:46:24;9.75;;;7.93;;
9834;SDS011;69850;50.942;13.748;2023-07-24T17:49:45;12.63;;;8.32;;
9834;SDS011;69850;50.942;13.748;2023-07-24T17:53:05;10.60;;;8.02;;
9834;SDS011;69850;50.942;13.748;2023-07-24T17:56:26;10.00;;;7.68;;
9834;SDS011;69850;50.942;13.748;2023-07-24T17:59:47;12.07;;;8.23;;
9834;SDS011;69850;50.942;13.748;2023-07-24T18:03:07;9.90;;;7.68;;
9834;SDS011;69850;50.942;13.748;2023-07-24T18:06:28;10.45;;;7.57;;
9834;SDS011;69850;50.942;13.748;2023-07-24T18:09:49;10.52;;;7.60;;
9834;SDS011;69850;50.942;13.748;2023-07-24T18:13:10;9.00;;;7.20;;
9834;SDS011;69850;50.942;13.748;2023-07-24T18:16:30;10.63;;;8.18;;
9834;SDS011;69850;50.942;13.748;2023-07-24T18:19:51;10.45;;;7.57;;
9834;SDS011;69850;50.942;13.748;2023-07-24T18:23:12;10.55;;;8.10;;
9834;SDS011;69850;50.942;13.748;2023-07-24T18:26:35;14.70;;;7.82;;
9834;SDS011;69850;50.942;13.748;2023-07-24T18:29:56;11.98;;;7.60;;
9834;SDS011;69850;50.942;13.748;2023-07-24T18:33:16;10.90;;;7.82;;
9834;SDS011;69850;50.942;13.748;2023-07-24T18:36:37;10.43;;;7.18;;
9834;SDS011;69850;50.942;13.748;2023-07-24T18:39:58;10.65;;;7.68;;
9834;SDS011;69850;50.942;13.748;2023-07-24T18:43:19;12.07;;;7.50;;
9834;SDS011;69850;50.942;13.748;2023-07-24T18:46:39;11.43;;;7.18;;
9834;SDS011;69850;50.942;13.748;2023-07-24T18:50:00;11.68;;;7.25;;
9834;SDS011;69850;50.942;13.748;2023-07-24T18:53:21;10.23;;;7.10;;
9834;SDS011;69850;50.942;13.748;2023-07-24T18:56:42;8.80;;;7.00;;
9834;SDS011;69850;50.942;13.748;2023-07-24T19:00:03;8.93;;;7.38;;
9834;SDS011;69850;50.942;13.748;2023-07-24T19:03:24;11.30;;;7.47;;
9834;SDS011;69850;50.942;13.748;2023-07-24T19:06:45;9.35;;;6.88;;
9834;SDS011;69850;50.942;13.748;2023-07-24T19:10:06;9.52;;;7.40;;
9834;SDS011;69850;50.942;13.748;2023-07-24T19:13:30;10.38;;;6.95;;
9834;SDS011;69850;50.942;13.748;2023-07-24T19:16:52;8.48;;;6.43;;
9834;SDS011;69850;50.942;13.748;2023-07-24T19:20:13;8.80;;;5.45;;
9834;SDS011;69850;50.942;13.748;2023-07-24T19:23:33;12.80;;;4.75;;
9834;SDS011;69850;50.942;13.748;2023-07-24T19:26:55;3.40;;;2.35;;
9834;SDS011;69850;50.942;13.748;2023-07-24T19:30:16;8.18;;;2.45;;
9834;SDS011;69850;50.942;13.748;2023-07-24T19:33:37;9.93;;;3.45;;
9834;SDS011;69850;50.942;13.748;2023-07-24T19:36:57;7.65;;;2.90;;
9834;SDS011;69850;50.942;13.748;2023-07-24T19:40:19;9.15;;;3.22;;
9834;SDS011;69850;50.942;13.748;2023-07-24T19:43:40;3.65;;;1.70;;
9834;SDS011;69850;50.942;13.748;2023-07-24T19:47:00;4.93;;;3.00;;
9834;SDS011;69850;50.942;13.748;2023-07-24T19:50:21;6.28;;;2.88;;
9834;SDS011;69850;50.942;13.748;2023-07-24T19:53:42;5.55;;;3.17;;
9834;SDS011;69850;50.942;13.748;2023-07-24T19:57:02;7.07;;;2.90;;
9834;SDS011;69850;50.942;13.748;2023-07-24T20:00:23;7.25;;;3.40;;
9834;SDS011;69850;50.942;13.748;2023-07-24T20:03:44;7.25;;;2.92;;
9834;SDS011;69850;50.942;13.748;2023-07-24T20:07:05;6.07;;;2.90;;
9834;SDS011;69850;50.942;13.748;2023-07-24T20:10:28;7.85;;;2.70;;
9834;SDS011;69850;50.942;13.748;2023-07-24T20:13:48;7.20;;;3.22;;